createdAt,value
2022-11-06T00:00:20.541Z,5.43
2022-11-06T00:02:48.433Z,4.97
2022-11-06T00:05:33.718Z,5.23
2022-11-06T00:08:01.527Z,5.17
2022-11-06T00:10:31.836Z,6.13
2022-11-06T00:13:01.077Z,7.17
2022-11-06T00:15:30.297Z,5.63
2022-11-06T00:17:58.435Z,6.30
2022-11-06T00:20:26.321Z,6.77
2022-11-06T00:22:54.044Z,4.90
2022-11-06T00:25:21.779Z,4.23
2022-11-06T00:27:49.513Z,4.40
2022-11-06T00:30:19.673Z,4.40
2022-11-06T00:32:49.029Z,5.40
2022-11-06T00:35:16.909Z,6.33
2022-11-06T00:37:44.673Z,7.13
2022-11-06T00:40:13.980Z,5.67
2022-11-06T00:42:41.846Z,4.93
2022-11-06T00:45:10.862Z,5.20
2022-11-06T00:47:38.638Z,4.30
2022-11-06T00:50:08.898Z,4.30
2022-11-06T00:52:36.632Z,5.63
2022-11-06T00:55:04.678Z,4.37
2022-11-06T00:57:33.152Z,3.93
2022-11-06T01:00:00.942Z,4.67
2022-11-06T01:02:28.881Z,5.47
2022-11-06T01:04:56.723Z,5.37
2022-11-06T01:07:25.913Z,4.10
2022-11-06T01:09:53.647Z,7.13
2022-11-06T01:12:21.439Z,4.97
2022-11-06T01:14:49.177Z,4.47
2022-11-06T01:17:17.212Z,5.50
2022-11-06T01:19:44.990Z,4.80
2022-11-06T01:22:12.737Z,4.13
2022-11-06T01:24:42.107Z,4.90
2022-11-06T01:27:25.970Z,3.40
2022-11-06T01:29:54.468Z,3.93
2022-11-06T01:32:22.465Z,3.33
2022-11-06T01:34:50.846Z,3.13
2022-11-06T01:37:18.638Z,3.33
2022-11-06T01:39:49.923Z,2.77
2022-11-06T01:42:22.019Z,3.40
2022-11-06T01:45:26.585Z,3.37
2022-11-06T01:47:54.626Z,4.30
2022-11-06T01:50:23.105Z,4.40
2022-11-06T01:52:51.831Z,4.10
2022-11-06T01:55:25.181Z,3.03
2022-11-06T01:57:53.971Z,3.83
2022-11-06T02:00:21.928Z,3.53
2022-11-06T02:02:50.988Z,5.77
2022-11-06T02:05:19.124Z,4.57
2022-11-06T02:07:47.464Z,4.60
2022-11-06T02:10:15.370Z,6.07
2022-11-06T02:12:55.770Z,5.50
2022-11-06T02:15:35.080Z,5.47
2022-11-06T02:18:16.001Z,4.53
2022-11-06T02:20:55.466Z,3.70
2022-11-06T02:23:42.039Z,3.70
2022-11-06T02:26:25.513Z,4.43
2022-11-06T02:28:59.209Z,3.67
2022-11-06T02:31:32.112Z,4.67
2022-11-06T02:34:04.499Z,6.03
2022-11-06T02:36:39.131Z,3.93
2022-11-06T02:39:11.379Z,4.60
2022-11-06T02:41:44.723Z,4.00
2022-11-06T02:44:18.689Z,3.90
2022-11-06T02:46:52.423Z,4.13
2022-11-06T02:49:27.306Z,4.87
2022-11-06T02:51:58.659Z,4.77
2022-11-06T02:54:30.148Z,5.40
2022-11-06T02:57:01.438Z,4.03
2022-11-06T02:59:34.444Z,4.93
2022-11-06T03:02:06.339Z,3.33
2022-11-06T03:04:41.151Z,3.37
2022-11-06T03:07:15.974Z,4.23
2022-11-06T03:09:45.586Z,3.60
2022-11-06T03:12:25.198Z,5.20
2022-11-06T03:14:59.373Z,4.33
2022-11-06T03:17:35.751Z,3.97
2022-11-06T03:20:16.226Z,5.53
2022-11-06T03:22:50.930Z,4.87
2022-11-06T03:25:22.417Z,6.33
2022-11-06T03:28:01.332Z,4.80
2022-11-06T03:30:31.268Z,4.63
2022-11-06T03:33:07.649Z,4.50
2022-11-06T03:35:41.579Z,4.90
2022-11-06T03:38:14.367Z,6.30
2022-11-06T03:40:48.149Z,6.60
2022-11-06T03:43:21.065Z,6.00
2022-11-06T03:45:52.937Z,7.17
2022-11-06T03:48:25.686Z,6.20
2022-11-06T03:51:01.679Z,6.07
2022-11-06T03:53:33.589Z,5.03
2022-11-06T03:56:06.407Z,5.03
2022-11-06T03:58:38.742Z,7.33
2022-11-06T04:01:11.521Z,5.70
2022-11-06T04:03:43.562Z,8.43
2022-11-06T04:06:14.733Z,6.10
2022-11-06T04:09:00.677Z,6.60
2022-11-06T04:11:49.300Z,7.17
2022-11-06T04:14:19.586Z,9.07
2022-11-06T04:16:53.955Z,10.33
2022-11-06T04:19:23.681Z,11.23
2022-11-06T04:22:13.974Z,11.67
2022-11-06T04:25:13.674Z,11.87
2022-11-06T04:27:55.018Z,9.67
2022-11-06T04:30:23.076Z,10.40
2022-11-06T04:33:03.085Z,12.70
2022-11-06T04:35:45.587Z,9.40
2022-11-06T04:38:22.725Z,10.47
2022-11-06T04:40:55.315Z,9.73
2022-11-06T04:43:31.210Z,9.80
2022-11-06T04:46:02.731Z,13.10
2022-11-06T04:48:32.480Z,12.03
2022-11-06T04:51:04.043Z,12.50
2022-11-06T04:53:33.277Z,9.73
2022-11-06T04:56:07.335Z,9.93
2022-11-06T04:58:35.106Z,8.60
2022-11-06T05:01:02.940Z,10.60
2022-11-06T05:03:32.119Z,8.83
2022-11-06T05:05:59.849Z,9.53
2022-11-06T05:08:27.626Z,10.60
2022-11-06T05:10:55.334Z,9.77
2022-11-06T05:13:23.127Z,9.63
2022-11-06T05:15:56.382Z,7.17
2022-11-06T05:18:24.179Z,8.20
2022-11-06T05:21:13.634Z,9.00
2022-11-06T05:23:41.085Z,7.27
2022-11-06T05:26:09.242Z,7.17
2022-11-06T05:28:37.200Z,8.57
2022-11-06T05:31:05.185Z,6.73
2022-11-06T05:33:33.007Z,7.80
2022-11-06T05:36:04.732Z,6.07
2022-11-06T05:38:33.120Z,8.07
2022-11-06T05:41:00.896Z,11.77
2022-11-06T05:43:28.675Z,10.17
2022-11-06T05:45:56.388Z,6.83
2022-11-06T05:48:24.168Z,8.07
2022-11-06T05:50:51.904Z,8.13
2022-11-06T05:53:21.031Z,7.43
2022-11-06T05:55:48.786Z,6.80
2022-11-06T05:58:16.665Z,7.00
2022-11-06T06:00:44.488Z,5.90
2022-11-06T06:03:12.369Z,6.90
2022-11-06T06:05:40.202Z,6.40
2022-11-06T06:08:08.046Z,10.03
2022-11-06T06:10:41.234Z,9.20
2022-11-06T06:13:09.359Z,8.27
2022-11-06T06:15:39.481Z,6.93
2022-11-06T06:18:07.598Z,7.97
2022-11-06T06:20:35.668Z,7.87
2022-11-06T06:23:03.869Z,5.43
2022-11-06T06:25:31.945Z,6.20
2022-11-06T06:28:01.088Z,6.63
2022-11-06T06:30:28.807Z,5.77
2022-11-06T06:32:56.529Z,7.37
2022-11-06T06:35:24.291Z,7.30
2022-11-06T06:37:53.737Z,5.30
2022-11-06T06:40:21.879Z,7.00
2022-11-06T06:42:49.668Z,7.57
2022-11-06T06:45:18.987Z,9.07
2022-11-06T06:47:46.711Z,8.33
2022-11-06T06:50:14.485Z,7.70
2022-11-06T06:52:42.234Z,7.17
2022-11-06T06:55:10.623Z,9.00
2022-11-06T06:57:38.354Z,9.70
2022-11-06T07:00:07.285Z,10.60
2022-11-06T07:02:36.390Z,8.73
2022-11-06T07:05:04.239Z,8.80
2022-11-06T07:07:33.156Z,10.27
2022-11-06T07:10:01.010Z,8.30
2022-11-06T07:12:28.739Z,10.37
2022-11-06T07:14:56.492Z,10.20
2022-11-06T07:17:24.251Z,11.73
2022-11-06T07:19:53.471Z,8.77
2022-11-06T07:22:27.864Z,8.63
2022-11-06T07:25:00.129Z,10.13
2022-11-06T07:27:29.081Z,10.00
2022-11-06T07:29:56.874Z,10.03
2022-11-06T07:32:24.707Z,10.23
2022-11-06T07:34:53.843Z,8.90
2022-11-06T07:37:21.584Z,11.17
2022-11-06T07:39:49.325Z,11.07
2022-11-06T07:42:17.080Z,8.43
2022-11-06T07:44:57.659Z,11.40
2022-11-06T07:47:27.610Z,9.60
2022-11-06T07:49:56.913Z,11.30
2022-11-06T07:52:24.950Z,9.47
2022-11-06T07:54:52.771Z,9.53
2022-11-06T07:57:20.513Z,9.30
2022-11-06T07:59:48.258Z,11.07
2022-11-06T08:02:17.306Z,9.33
2022-11-06T08:04:45.238Z,10.37
2022-11-06T08:07:14.338Z,10.70
2022-11-06T08:09:42.086Z,10.07
2022-11-06T08:12:10.013Z,9.77
2022-11-06T08:14:41.413Z,9.07
2022-11-06T08:17:09.522Z,8.73
2022-11-06T08:19:37.260Z,10.87
2022-11-06T08:22:05.131Z,10.57
2022-11-06T08:24:34.212Z,11.03
2022-11-06T08:27:02.779Z,9.33
2022-11-06T08:29:30.530Z,9.53
2022-11-06T08:31:58.255Z,9.80
2022-11-06T08:34:26.083Z,8.37
2022-11-06T08:36:54.031Z,9.73
2022-11-06T08:39:21.794Z,8.23
2022-11-06T08:41:50.880Z,7.77
2022-11-06T08:44:18.777Z,8.33
2022-11-06T08:46:51.718Z,10.70
2022-11-06T08:49:19.939Z,9.53
2022-11-06T08:51:47.704Z,8.57
2022-11-06T08:54:15.761Z,11.70
2022-11-06T08:56:53.073Z,7.83
2022-11-06T08:59:22.517Z,11.27
2022-11-06T09:01:50.424Z,7.63
2022-11-06T09:04:18.425Z,6.37
2022-11-06T09:06:46.428Z,7.77
2022-11-06T09:09:14.280Z,7.57
2022-11-06T09:11:42.290Z,5.77
2022-11-06T09:14:10.245Z,6.80
2022-11-06T09:16:39.524Z,9.13
2022-11-06T09:19:07.471Z,6.57
2022-11-06T09:21:36.160Z,6.10
2022-11-06T09:24:04.345Z,7.23
2022-11-06T09:26:32.434Z,6.30
2022-11-06T09:29:00.421Z,9.17
2022-11-06T09:31:28.703Z,6.60
2022-11-06T09:33:58.018Z,5.23
2022-11-06T09:36:26.006Z,7.83
2022-11-06T09:38:53.911Z,7.10
2022-11-06T09:41:33.476Z,6.27
2022-11-06T09:44:12.511Z,12.40
2022-11-06T09:46:45.515Z,5.20
2022-11-06T09:49:22.081Z,8.93
2022-11-06T09:51:54.182Z,5.13
2022-11-06T09:54:27.211Z,5.70
2022-11-06T09:57:01.964Z,8.63
2022-11-06T09:59:34.453Z,5.53
2022-11-06T10:02:02.815Z,5.97
2022-11-06T10:04:43.111Z,7.10
2022-11-06T10:07:29.608Z,8.23
2022-11-06T10:09:58.115Z,8.73
2022-11-06T10:12:36.306Z,11.70
2022-11-06T10:15:17.402Z,9.60
2022-11-06T10:17:54.914Z,9.23
2022-11-06T10:20:31.879Z,12.03
2022-11-06T10:23:08.933Z,6.20
2022-11-06T10:25:46.675Z,7.20
2022-11-06T10:28:32.364Z,5.80
2022-11-06T10:31:08.285Z,8.10
2022-11-06T10:33:47.621Z,7.73
2022-11-06T10:36:21.239Z,5.63
2022-11-06T10:38:50.122Z,6.30
2022-11-06T10:41:22.421Z,9.97
2022-11-06T10:43:53.931Z,4.63
2022-11-06T10:46:29.902Z,5.17
2022-11-06T10:49:00.649Z,4.73
2022-11-06T10:52:13.046Z,6.53
2022-11-06T10:54:57.186Z,5.30
2022-11-06T10:57:36.284Z,8.50
2022-11-06T11:00:05.895Z,8.10
2022-11-06T11:02:37.688Z,3.43
2022-11-06T11:05:13.998Z,4.20
2022-11-06T11:07:43.928Z,5.37
2022-11-06T11:10:31.223Z,4.17
2022-11-06T11:13:06.906Z,5.00
2022-11-06T11:15:46.094Z,4.50
2022-11-06T11:18:19.431Z,5.13
2022-11-06T11:20:48.262Z,5.23
2022-11-06T11:23:19.607Z,5.97
2022-11-06T11:25:51.415Z,4.60
2022-11-06T11:28:30.979Z,4.87
2022-11-06T11:31:07.583Z,5.33
2022-11-06T11:33:36.350Z,7.17
2022-11-06T11:36:06.763Z,4.77
2022-11-06T11:38:37.493Z,6.87
2022-11-06T11:41:09.929Z,4.87
2022-11-06T11:43:37.987Z,6.37
2022-11-06T11:46:16.700Z,5.90
2022-11-06T11:48:46.199Z,2.90
2022-11-06T11:51:30.999Z,3.83
2022-11-06T11:54:04.468Z,4.13
2022-11-06T11:57:03.167Z,4.10
2022-11-06T11:59:26.216Z,2.83
2022-11-06T12:01:56.307Z,4.70
2022-11-06T12:04:29.443Z,6.27
2022-11-06T12:07:00.654Z,5.03
2022-11-06T12:09:30.267Z,6.07
2022-11-06T12:12:01.799Z,6.67
2022-11-06T12:14:37.980Z,5.03
2022-11-06T12:17:15.465Z,6.00
2022-11-06T12:19:49.082Z,5.67
2022-11-06T12:22:24.795Z,6.07
2022-11-06T12:24:57.988Z,4.50
2022-11-06T12:27:32.749Z,5.03
2022-11-06T12:30:06.253Z,8.30
2022-11-06T12:32:46.054Z,5.40
2022-11-06T12:35:22.911Z,3.77
2022-11-06T12:38:02.227Z,4.67
2022-11-06T12:40:31.795Z,5.90
2022-11-06T12:43:11.893Z,5.90
2022-11-06T12:45:53.073Z,7.47
2022-11-06T12:48:34.887Z,4.00
2022-11-06T12:51:12.330Z,7.23
2022-11-06T12:53:50.227Z,6.17
2022-11-06T12:56:23.281Z,3.77
2022-11-06T12:59:06.683Z,5.10
2022-11-06T13:01:53.536Z,5.80
2022-11-06T13:04:42.039Z,4.77
2022-11-06T13:07:31.534Z,5.23
2022-11-06T13:10:10.192Z,5.07
2022-11-06T13:12:46.689Z,4.13
2022-11-06T13:15:26.984Z,10.40
2022-11-06T13:18:01.080Z,6.40
2022-11-06T13:20:36.399Z,6.83
2022-11-06T13:23:11.840Z,2.67
2022-11-06T13:25:46.370Z,5.23
2022-11-06T13:28:29.409Z,3.93
2022-11-06T13:31:00.075Z,5.43
2022-11-06T13:33:31.258Z,6.47
2022-11-06T13:36:01.060Z,6.10
2022-11-06T13:38:34.051Z,5.37
2022-11-06T13:41:07.358Z,3.43
2022-11-06T13:43:38.691Z,3.67
2022-11-06T13:46:16.316Z,3.00
2022-11-06T13:48:56.384Z,2.97
2022-11-06T13:51:37.185Z,4.43
2022-11-06T13:54:14.049Z,3.27
2022-11-06T13:57:11.655Z,3.80
2022-11-06T14:00:05.555Z,2.83
2022-11-06T14:02:58.679Z,4.43
2022-11-06T14:05:46.465Z,3.57
2022-11-06T14:08:19.627Z,3.27
2022-11-06T14:10:52.979Z,3.83
2022-11-06T14:13:28.874Z,2.83
2022-11-06T14:16:09.092Z,4.50
2022-11-06T14:18:41.798Z,3.03
2022-11-06T14:21:44.020Z,3.40
2022-11-06T14:24:32.667Z,2.80
2022-11-06T14:27:02.471Z,2.40
2022-11-06T14:30:12.054Z,3.67
2022-11-06T14:32:45.693Z,3.47
2022-11-06T14:35:52.074Z,2.50
2022-11-06T14:38:41.552Z,2.30
2022-11-06T14:41:51.473Z,3.30
2022-11-06T14:44:30.203Z,3.07
2022-11-06T14:47:02.311Z,2.80
2022-11-06T14:49:36.521Z,3.97
2022-11-06T14:52:08.903Z,2.70
2022-11-06T14:54:40.355Z,4.13
2022-11-06T14:57:10.714Z,2.80
2022-11-06T14:59:40.951Z,2.90
2022-11-06T15:02:18.551Z,3.00
2022-11-06T15:04:51.091Z,2.83
2022-11-06T15:08:03.107Z,3.43
2022-11-06T15:10:50.205Z,2.57
2022-11-06T15:13:27.419Z,2.80
2022-11-06T15:15:59.506Z,4.13
2022-11-06T15:18:28.105Z,2.80
2022-11-06T15:20:58.336Z,2.80
2022-11-06T15:23:32.315Z,2.37
2022-11-06T15:26:07.335Z,2.20
2022-11-06T15:28:42.038Z,1.80
2022-11-06T15:31:15.534Z,1.93
2022-11-06T15:33:55.557Z,2.13
2022-11-06T15:36:24.798Z,1.37
2022-11-06T15:38:53.989Z,1.40
2022-11-06T15:41:24.803Z,1.93
2022-11-06T15:43:55.697Z,1.43
2022-11-06T15:46:26.046Z,1.87
2022-11-06T15:49:18.065Z,1.40
2022-11-06T15:51:53.088Z,1.23
2022-11-06T15:54:37.059Z,1.63
2022-11-06T15:57:12.425Z,2.00
2022-11-06T15:59:40.399Z,2.57
2022-11-06T16:02:17.247Z,1.67
2022-11-06T16:04:46.168Z,2.90
2022-11-06T16:07:14.543Z,4.17
2022-11-06T16:09:44.555Z,2.37
2022-11-06T16:12:14.596Z,4.73
2022-11-06T16:14:44.474Z,4.33
2022-11-06T16:17:17.089Z,5.53
2022-11-06T16:19:48.003Z,2.70
2022-11-06T16:22:18.234Z,2.90
2022-11-06T16:24:51.948Z,2.37
2022-11-06T16:27:20.680Z,3.67
2022-11-06T16:29:50.176Z,3.00
2022-11-06T16:32:21.203Z,4.67
2022-11-06T16:34:49.875Z,2.47
2022-11-06T16:37:37.623Z,2.90
2022-11-06T16:40:48.502Z,3.60
2022-11-06T16:43:17.797Z,3.47
2022-11-06T16:46:07.614Z,4.47
2022-11-06T16:48:38.284Z,2.33
2022-11-06T16:51:08.943Z,2.73
2022-11-06T16:53:49.715Z,2.40
2022-11-06T16:56:23.970Z,2.50
2022-11-06T16:58:54.170Z,3.20
2022-11-06T17:01:22.307Z,2.33
2022-11-06T17:03:56.338Z,3.40
2022-11-06T17:06:27.295Z,4.97
2022-11-06T17:09:06.386Z,2.53
2022-11-06T17:11:38.724Z,4.13
2022-11-06T17:14:18.566Z,3.67
2022-11-06T17:16:49.468Z,4.50
2022-11-06T17:19:17.516Z,3.20
2022-11-06T17:21:45.358Z,3.33
2022-11-06T17:27:02.457Z,4.40
2022-11-06T17:29:30.248Z,3.67
2022-11-06T17:31:58.014Z,3.10
2022-11-06T17:34:25.820Z,4.03
2022-11-06T17:36:53.719Z,3.50
2022-11-06T17:39:22.549Z,3.90
2022-11-06T17:41:50.260Z,2.77
2022-11-06T17:44:19.425Z,3.37
2022-11-06T17:46:47.985Z,4.50
2022-11-06T17:49:18.367Z,4.30
2022-11-06T17:51:58.218Z,7.07
2022-11-06T17:54:28.459Z,4.57
2022-11-06T17:56:57.530Z,4.10
2022-11-06T17:59:27.177Z,4.00
2022-11-06T18:01:56.003Z,4.40
2022-11-06T18:04:25.718Z,3.93
2022-11-06T18:06:54.700Z,4.30
2022-11-06T18:09:23.489Z,4.37
2022-11-06T18:11:52.240Z,4.33
2022-11-06T18:14:21.221Z,4.07
2022-11-06T18:16:50.600Z,3.70
2022-11-06T18:19:20.336Z,4.40
2022-11-06T18:21:48.275Z,3.83
2022-11-06T18:24:16.142Z,4.20
2022-11-06T18:26:43.955Z,6.60
2022-11-06T18:29:13.268Z,6.77
2022-11-06T18:31:42.167Z,5.40
2022-11-06T18:34:19.515Z,4.40
2022-11-06T18:36:48.925Z,6.87
2022-11-06T18:39:16.904Z,6.60
2022-11-06T18:41:44.672Z,6.10
2022-11-06T18:44:12.503Z,7.47
2022-11-06T18:46:40.250Z,7.97
2022-11-06T18:49:07.984Z,6.63
2022-11-06T18:51:37.139Z,8.80
2022-11-06T18:54:07.299Z,6.87
2022-11-06T18:56:37.275Z,8.63
2022-11-06T18:59:06.095Z,6.67
2022-11-06T19:01:35.829Z,7.20
2022-11-06T19:04:04.944Z,7.20
2022-11-06T19:06:33.320Z,7.00
2022-11-06T19:09:02.575Z,10.60
2022-11-06T19:11:30.863Z,7.53
2022-11-06T19:13:58.665Z,11.00
2022-11-06T19:16:26.611Z,8.47
2022-11-06T19:21:30.132Z,7.33
2022-11-06T19:24:03.312Z,8.13
2022-11-06T19:26:34.488Z,8.27
2022-11-06T19:29:02.300Z,7.80
2022-11-06T19:31:30.627Z,7.70
2022-11-06T19:33:59.752Z,6.27
2022-11-06T19:36:27.547Z,6.97
2022-11-06T19:38:57.273Z,7.13
2022-11-06T19:41:25.883Z,5.73
2022-11-06T19:43:55.162Z,5.97
2022-11-06T19:46:27.174Z,7.27
2022-11-06T19:48:56.148Z,7.37
2022-11-06T19:51:24.884Z,6.07
2022-11-06T19:53:53.447Z,10.37
2022-11-06T19:56:21.641Z,7.80
2022-11-06T19:58:50.662Z,6.60
2022-11-06T20:01:21.448Z,8.50
2022-11-06T20:03:49.306Z,6.97
2022-11-06T20:06:17.983Z,6.50
2022-11-06T20:08:48.916Z,10.70
2022-11-06T20:11:17.147Z,7.97
2022-11-06T20:13:46.443Z,7.23
2022-11-06T20:16:16.147Z,9.17
2022-11-06T20:18:45.973Z,6.23
2022-11-06T20:21:13.981Z,7.03
2022-11-06T20:23:41.750Z,6.83
2022-11-06T20:26:09.852Z,7.13
2022-11-06T20:28:37.873Z,6.23
2022-11-06T20:31:07.364Z,7.70
2022-11-06T20:33:35.280Z,7.30
2022-11-06T20:36:11.577Z,8.50
2022-11-06T20:38:39.458Z,8.77
2022-11-06T20:41:07.205Z,8.97
2022-11-06T20:43:34.939Z,7.27
2022-11-06T20:46:04.171Z,6.70
2022-11-06T20:48:32.918Z,6.03
2022-11-06T20:51:01.910Z,9.83
2022-11-06T20:53:31.079Z,9.77
2022-11-06T20:55:59.484Z,7.57
2022-11-06T20:58:28.052Z,6.80
2022-11-06T21:01:01.975Z,7.80
2022-11-06T21:03:37.056Z,6.10
2022-11-06T21:06:05.454Z,7.17
2022-11-06T21:08:37.809Z,6.77
2022-11-06T21:11:08.247Z,7.50
2022-11-06T21:13:36.114Z,7.60
2022-11-06T21:16:05.876Z,6.50
2022-11-06T21:18:37.021Z,7.53
2022-11-06T21:21:06.596Z,7.47
2022-11-06T21:23:37.086Z,6.73
2022-11-06T21:26:06.656Z,6.93
2022-11-06T21:28:34.546Z,7.10
2022-11-06T21:31:02.345Z,6.97
2022-11-06T21:33:30.163Z,6.80
2022-11-06T21:36:06.184Z,6.60
2022-11-06T21:38:36.092Z,7.37
2022-11-06T21:41:07.073Z,7.87
2022-11-06T21:43:35.062Z,6.57
2022-11-06T21:46:03.327Z,6.87
2022-11-06T21:48:47.767Z,8.70
2022-11-06T21:51:18.454Z,9.10
2022-11-06T21:54:05.487Z,7.73
2022-11-06T21:56:33.563Z,8.17
2022-11-06T21:59:02.843Z,7.03
2022-11-06T22:01:31.722Z,8.93
2022-11-06T22:04:00.040Z,7.00
2022-11-06T22:06:29.522Z,7.13
2022-11-06T22:09:00.857Z,7.77
2022-11-06T22:11:31.080Z,7.83
2022-11-06T22:14:01.117Z,8.70
2022-11-06T22:16:30.715Z,8.53
2022-11-06T22:18:59.276Z,7.60
2022-11-06T22:21:28.566Z,8.10
2022-11-06T22:23:58.189Z,7.50
2022-11-06T22:26:29.069Z,7.57
2022-11-06T22:28:59.249Z,7.30
2022-11-06T22:31:27.897Z,7.97
2022-11-06T22:33:55.924Z,9.07
2022-11-06T22:36:24.405Z,7.33
2022-11-06T22:38:53.112Z,7.83
2022-11-06T22:41:25.351Z,7.83
2022-11-06T22:43:53.708Z,8.03
2022-11-06T22:46:23.867Z,9.43
2022-11-06T22:48:53.094Z,7.33
2022-11-06T22:51:22.687Z,6.47
2022-11-06T22:53:51.301Z,6.60
2022-11-06T22:56:19.451Z,6.00
2022-11-06T22:58:48.733Z,7.67
2022-11-06T23:01:21.969Z,8.70
2022-11-06T23:03:49.945Z,7.50
2022-11-06T23:06:17.947Z,8.90
2022-11-06T23:08:47.190Z,9.77
2022-11-06T23:11:17.213Z,7.87
2022-11-06T23:13:45.800Z,7.77
2022-11-06T23:16:17.286Z,8.30
2022-11-06T23:18:45.715Z,8.80
2022-11-06T23:21:14.463Z,9.13
2022-11-06T23:23:43.634Z,8.30
2022-11-06T23:26:13.204Z,9.00
2022-11-06T23:28:41.733Z,8.20
2022-11-06T23:31:11.598Z,9.03
2022-11-06T23:33:40.770Z,7.10
2022-11-06T23:36:09.938Z,6.33
2022-11-06T23:38:37.753Z,6.10
2022-11-06T23:41:28.353Z,5.63
2022-11-06T23:43:57.237Z,7.40
2022-11-06T23:46:26.194Z,6.33
2022-11-06T23:48:55.915Z,6.57
2022-11-06T23:51:25.108Z,7.40
2022-11-06T23:53:53.337Z,7.37
2022-11-06T23:56:21.219Z,7.13
2022-11-06T23:58:48.946Z,9.10
